createdAt,value
2018-12-30T00:47:56.199Z,3.30
2018-12-30T00:50:37.492Z,3.30
2018-12-30T00:53:18.170Z,3.63
2018-12-30T00:55:58.543Z,2.70
2018-12-30T00:58:39.737Z,2.93
2018-12-30T01:01:20.520Z,3.20
2018-12-30T01:04:01.558Z,3.00
2018-12-30T01:06:43.110Z,3.70
2018-12-30T01:09:22.226Z,3.30
2018-12-30T01:12:10.758Z,3.27
2018-12-30T01:14:59.221Z,3.30
2018-12-30T01:17:47.477Z,3.70
2018-12-30T01:20:37.374Z,2.93
2018-12-30T01:23:18.767Z,3.53
2018-12-30T01:25:59.584Z,3.23
2018-12-30T01:28:40.599Z,3.17
2018-12-30T01:31:21.681Z,3.23
2018-12-30T01:34:02.637Z,3.27
2018-12-30T01:36:31.237Z,3.30
2018-12-30T01:39:19.936Z,3.03
2018-12-30T01:41:49.073Z,3.60
2018-12-30T01:44:17.962Z,3.40
2018-12-30T01:46:46.868Z,2.67
2018-12-30T01:49:15.527Z,3.50
2018-12-30T01:51:44.615Z,3.70
2018-12-30T01:54:13.451Z,2.77
2018-12-30T01:56:42.047Z,3.13
2018-12-30T01:59:10.615Z,3.80
2018-12-30T02:01:39.274Z,3.07
2018-12-30T02:04:07.851Z,3.60
2018-12-30T02:06:36.457Z,3.13
2018-12-30T02:09:06.696Z,3.00
2018-12-30T02:11:35.280Z,3.20
2018-12-30T02:14:03.939Z,2.80
2018-12-30T02:16:32.526Z,3.00
2018-12-30T02:19:20.662Z,3.50
2018-12-30T02:22:08.800Z,3.10
2018-12-30T02:24:56.982Z,3.13
2018-12-30T02:27:44.951Z,3.30
2018-12-30T02:30:13.825Z,3.27
2018-12-30T18:26:13.074Z,2.20
2018-12-30T18:28:42.170Z,1.57
2018-12-30T18:31:10.776Z,1.47
2018-12-30T18:33:39.919Z,1.60
2018-12-30T20:44:29.698Z,2.33
2018-12-30T20:46:58.294Z,2.00
2018-12-30T20:49:26.932Z,1.43
2018-12-30T20:51:55.775Z,1.57
2018-12-30T20:54:25.819Z,1.50
2018-12-30T20:57:14.018Z,1.80
2018-12-30T21:03:11.114Z,2.30
2018-12-30T21:15:44.287Z,2.17
2018-12-30T21:18:13.218Z,2.10
2018-12-30T21:20:41.847Z,1.70
2018-12-30T21:23:10.699Z,2.10
2018-12-30T21:25:39.702Z,1.80
2018-12-30T21:28:08.535Z,2.00
2018-12-30T21:40:25.565Z,2.17
2018-12-30T21:44:00.358Z,2.50
2018-12-30T21:45:43.996Z,1.90
2018-12-30T21:48:12.852Z,2.00
2018-12-30T21:50:41.467Z,2.00
2018-12-30T21:53:10.407Z,2.30
2018-12-30T21:55:39.532Z,2.30
2018-12-30T21:58:08.440Z,1.80
2018-12-30T22:00:37.414Z,1.80
2018-12-30T22:29:04.893Z,1.80
2018-12-30T22:31:52.818Z,1.83
2018-12-30T22:34:40.966Z,2.17
2018-12-30T22:37:28.880Z,1.80
2018-12-30T22:40:16.763Z,2.07
2018-12-30T22:43:04.998Z,2.00
2018-12-30T22:48:46.783Z,1.97
2018-12-30T22:51:35.004Z,2.30
2018-12-30T22:54:22.890Z,1.90
2018-12-30T22:57:11.410Z,2.33
2018-12-30T22:59:59.361Z,2.00
2018-12-30T23:02:47.795Z,2.10
2018-12-30T23:05:56.482Z,1.97
2018-12-30T23:08:44.358Z,1.87
2018-12-30T23:11:32.527Z,2.30
2018-12-30T23:14:13.522Z,1.90
2018-12-30T23:16:54.095Z,2.13
2018-12-30T23:19:34.980Z,2.00
2018-12-30T23:22:16.089Z,2.00
2018-12-30T23:24:56.969Z,1.83
2018-12-30T23:27:37.792Z,2.13
2018-12-30T23:30:18.830Z,2.00
2018-12-30T23:32:59.723Z,2.10
2018-12-30T23:35:28.695Z,2.43
2018-12-30T23:38:16.608Z,2.07
2018-12-30T23:44:12.349Z,2.33
2018-12-30T23:47:00.494Z,2.10
2018-12-30T23:49:41.349Z,2.20
2018-12-30T23:52:20.652Z,2.30
2018-12-30T23:55:08.789Z,2.40
2018-12-30T23:57:56.990Z,2.20
